sensor_id;sensor_type;location;lat;lon;timestamp;temperature;humidity
11246;DHT22;59870;50.106;8.580;2023-01-10T06:19:36;9.20;95.00
11246;DHT22;59870;50.106;8.580;2023-01-10T06:22:12;9.20;95.00
11246;DHT22;59870;50.106;8.580;2023-01-10T06:24:48;9.20;95.00
11246;DHT22;59870;50.106;8.580;2023-01-10T06:27:16;9.20;95.40
11246;DHT22;59870;50.106;8.580;2023-01-10T06:29:46;9.50;95.10
11246;DHT22;59870;50.106;8.580;2023-01-10T06:32:22;8.90;94.90
11246;DHT22;59870;50.106;8.580;2023-01-10T06:35:05;9.20;95.00
11246;DHT22;59870;50.106;8.580;2023-01-10T06:37:57;9.30;95.10
11246;DHT22;59870;50.106;8.580;2023-01-10T06:40:35;9.20;95.00
11246;DHT22;59870;50.106;8.580;2023-01-10T06:43:16;9.30;95.00
11246;DHT22;59870;50.106;8.580;2023-01-10T06:45:57;9.30;94.60
11246;DHT22;59870;50.106;8.580;2023-01-10T06:51:59;9.30;94.80
11246;DHT22;59870;50.106;8.580;2023-01-10T06:57:31;9.40;94.70
11246;DHT22;59870;50.106;8.580;2023-01-10T07:00:34;9.10;94.40
11246;DHT22;59870;50.106;8.580;2023-01-10T07:55:40;9.40;94.10
11246;DHT22;59870;50.106;8.580;2023-01-10T07:58:15;9.60;94.20
11246;DHT22;59870;50.106;8.580;2023-01-10T08:01:02;9.50;93.90
11246;DHT22;59870;50.106;8.580;2023-01-10T08:04:07;9.30;94.10
11246;DHT22;59870;50.106;8.580;2023-01-10T08:06:41;9.10;94.10
11246;DHT22;59870;50.106;8.580;2023-01-10T08:09:11;9.60;94.20
11246;DHT22;59870;50.106;8.580;2023-01-10T08:15:55;9.40;94.20
11246;DHT22;59870;50.106;8.580;2023-01-10T08:24:52;9.40;94.20
11246;DHT22;59870;50.106;8.580;2023-01-10T09:02:13;10.90;92.90
11246;DHT22;59870;50.106;8.580;2023-01-10T09:04:41;11.10;92.20
11246;DHT22;59870;50.106;8.580;2023-01-10T09:07:10;11.30;92.00
11246;DHT22;59870;50.106;8.580;2023-01-10T09:10:12;11.70;91.70
11246;DHT22;59870;50.106;8.580;2023-01-10T09:26:58;12.80;90.40
11246;DHT22;59870;50.106;8.580;2023-01-10T09:29:30;13.30;90.30
11246;DHT22;59870;50.106;8.580;2023-01-10T09:32:00;13.20;88.80
11246;DHT22;59870;50.106;8.580;2023-01-10T09:34:28;13.40;88.10
11246;DHT22;59870;50.106;8.580;2023-01-10T09:36:59;13.50;87.20
11246;DHT22;59870;50.106;8.580;2023-01-10T10:17:56;14.10;83.00
11246;DHT22;59870;50.106;8.580;2023-01-10T10:26:32;13.90;82.90
11246;DHT22;59870;50.106;8.580;2023-01-10T10:29:18;13.80;82.60
11246;DHT22;59870;50.106;8.580;2023-01-10T10:41:53;13.60;82.60
11246;DHT22;59870;50.106;8.580;2023-01-10T10:45:44;13.50;83.20
11246;DHT22;59870;50.106;8.580;2023-01-10T10:48:24;13.60;84.70
11246;DHT22;59870;50.106;8.580;2023-01-10T10:54:49;13.40;83.70
11246;DHT22;59870;50.106;8.580;2023-01-10T10:57:27;13.20;83.60
11246;DHT22;59870;50.106;8.580;2023-01-10T11:00:31;12.90;83.50
11246;DHT22;59870;50.106;8.580;2023-01-10T11:03:31;12.80;83.70
11246;DHT22;59870;50.106;8.580;2023-01-10T11:06:09;13.00;84.80
11246;DHT22;59870;50.106;8.580;2023-01-10T11:08:38;13.00;84.20
11246;DHT22;59870;50.106;8.580;2023-01-10T11:17:33;12.80;85.60
11246;DHT22;59870;50.106;8.580;2023-01-10T11:20:16;12.80;84.70
11246;DHT22;59870;50.106;8.580;2023-01-10T11:27:54;12.80;85.70
11246;DHT22;59870;50.106;8.580;2023-01-10T11:30:27;12.70;85.40
11246;DHT22;59870;50.106;8.580;2023-01-10T11:41:54;12.30;86.30
11246;DHT22;59870;50.106;8.580;2023-01-10T11:44:28;12.50;85.90
11246;DHT22;59870;50.106;8.580;2023-01-10T11:47:01;12.60;86.60
11246;DHT22;59870;50.106;8.580;2023-01-10T11:49:56;12.50;86.50
11246;DHT22;59870;50.106;8.580;2023-01-10T11:52:27;12.70;86.80
11246;DHT22;59870;50.106;8.580;2023-01-10T11:54:59;12.50;86.40
11246;DHT22;59870;50.106;8.580;2023-01-10T11:57:33;12.50;86.60
11246;DHT22;59870;50.106;8.580;2023-01-10T12:03:45;12.50;87.30
11246;DHT22;59870;50.106;8.580;2023-01-10T12:12:36;12.40;87.80
11246;DHT22;59870;50.106;8.580;2023-01-10T12:24:37;12.30;85.80
11246;DHT22;59870;50.106;8.580;2023-01-10T12:34:16;12.60;84.60
11246;DHT22;59870;50.106;8.580;2023-01-10T12:37:00;12.60;84.40
11246;DHT22;59870;50.106;8.580;2023-01-10T12:40:08;12.30;84.20
11246;DHT22;59870;50.106;8.580;2023-01-10T12:42:51;12.70;84.10
11246;DHT22;59870;50.106;8.580;2023-01-10T14:02:52;12.20;84.70
11246;DHT22;59870;50.106;8.580;2023-01-10T14:05:23;12.40;83.70
11246;DHT22;59870;50.106;8.580;2023-01-10T14:07:52;12.20;83.70
11246;DHT22;59870;50.106;8.580;2023-01-10T14:10:30;12.40;84.60
11246;DHT22;59870;50.106;8.580;2023-01-10T14:13:05;12.20;84.50
11246;DHT22;59870;50.106;8.580;2023-01-10T14:15:43;12.40;84.60
11246;DHT22;59870;50.106;8.580;2023-01-10T14:18:40;12.20;84.80
11246;DHT22;59870;50.106;8.580;2023-01-10T14:21:23;12.20;84.60
11246;DHT22;59870;50.106;8.580;2023-01-10T14:23:57;11.90;84.70
11246;DHT22;59870;50.106;8.580;2023-01-10T14:26:54;12.50;84.90
11246;DHT22;59870;50.106;8.580;2023-01-10T14:29:26;12.20;85.40
11246;DHT22;59870;50.106;8.580;2023-01-10T14:31:58;12.40;85.10
11246;DHT22;59870;50.106;8.580;2023-01-10T14:34:29;12.20;84.40
11246;DHT22;59870;50.106;8.580;2023-01-10T14:52:35;12.10;85.40
11246;DHT22;59870;50.106;8.580;2023-01-10T14:55:12;12.10;84.80
11246;DHT22;59870;50.106;8.580;2023-01-10T14:57:59;12.00;84.80
11246;DHT22;59870;50.106;8.580;2023-01-10T15:00:31;12.20;85.20
11246;DHT22;59870;50.106;8.580;2023-01-10T17:00:51;11.30;85.50
11246;DHT22;59870;50.106;8.580;2023-01-10T17:08:00;11.30;85.80
11246;DHT22;59870;50.106;8.580;2023-01-10T17:10:33;11.10;84.40
11246;DHT22;59870;50.106;8.580;2023-01-10T17:13:02;11.50;85.90
11246;DHT22;59870;50.106;8.580;2023-01-10T17:15:31;11.30;85.80
11246;DHT22;59870;50.106;8.580;2023-01-10T17:18:00;11.30;84.70
11246;DHT22;59870;50.106;8.580;2023-01-10T17:20:30;11.50;85.60
11246;DHT22;59870;50.106;8.580;2023-01-10T17:22:58;11.40;85.00
11246;DHT22;59870;50.106;8.580;2023-01-10T17:25:26;11.50;85.30
11246;DHT22;59870;50.106;8.580;2023-01-10T17:27:56;11.50;85.60
11246;DHT22;59870;50.106;8.580;2023-01-10T17:30:24;11.50;85.10
11246;DHT22;59870;50.106;8.580;2023-01-10T17:32:53;11.50;85.30
11246;DHT22;59870;50.106;8.580;2023-01-10T17:35:20;11.20;85.20
11246;DHT22;59870;50.106;8.580;2023-01-10T17:37:53;11.20;85.60
11246;DHT22;59870;50.106;8.580;2023-01-10T17:40:20;11.40;85.20
11246;DHT22;59870;50.106;8.580;2023-01-10T17:42:48;11.40;85.70
11246;DHT22;59870;50.106;8.580;2023-01-10T17:45:16;11.40;86.10
11246;DHT22;59870;50.106;8.580;2023-01-10T17:47:46;11.40;85.80
11246;DHT22;59870;50.106;8.580;2023-01-10T17:50:14;11.30;84.90
11246;DHT22;59870;50.106;8.580;2023-01-10T17:52:48;11.20;85.00
11246;DHT22;59870;50.106;8.580;2023-01-10T17:55:16;10.80;84.80
11246;DHT22;59870;50.106;8.580;2023-01-10T17:57:46;11.40;85.50
11246;DHT22;59870;50.106;8.580;2023-01-10T18:00:22;11.40;85.50
11246;DHT22;59870;50.106;8.580;2023-01-10T18:02:52;10.90;85.10
11246;DHT22;59870;50.106;8.580;2023-01-10T18:05:56;11.10;85.10
11246;DHT22;59870;50.106;8.580;2023-01-10T18:08:41;11.10;85.50
11246;DHT22;59870;50.106;8.580;2023-01-10T18:11:08;11.40;85.60
11246;DHT22;59870;50.106;8.580;2023-01-10T18:13:36;11.10;85.40
11246;DHT22;59870;50.106;8.580;2023-01-10T18:16:04;11.30;85.50
11246;DHT22;59870;50.106;8.580;2023-01-10T18:18:32;11.10;85.30
11246;DHT22;59870;50.106;8.580;2023-01-10T18:21:00;11.20;85.60
11246;DHT22;59870;50.106;8.580;2023-01-10T18:23:30;11.10;84.90
11246;DHT22;59870;50.106;8.580;2023-01-10T18:26:04;11.10;84.90
11246;DHT22;59870;50.106;8.580;2023-01-10T18:28:41;10.80;84.80
11246;DHT22;59870;50.106;8.580;2023-01-10T18:31:16;11.10;85.50
11246;DHT22;59870;50.106;8.580;2023-01-10T18:33:47;11.10;84.90
11246;DHT22;59870;50.106;8.580;2023-01-10T18:36:17;11.30;85.00
11246;DHT22;59870;50.106;8.580;2023-01-10T18:38:46;11.20;85.80
11246;DHT22;59870;50.106;8.580;2023-01-10T18:41:17;11.40;85.40
11246;DHT22;59870;50.106;8.580;2023-01-10T18:43:46;11.20;85.40
11246;DHT22;59870;50.106;8.580;2023-01-10T18:46:17;10.90;85.50
11246;DHT22;59870;50.106;8.580;2023-01-10T18:48:49;11.40;87.00
11246;DHT22;59870;50.106;8.580;2023-01-10T18:51:18;11.20;86.90
11246;DHT22;59870;50.106;8.580;2023-01-10T18:53:49;11.20;87.70
11246;DHT22;59870;50.106;8.580;2023-01-10T18:56:22;10.90;87.70
11246;DHT22;59870;50.106;8.580;2023-01-10T18:58:50;11.10;88.10
11246;DHT22;59870;50.106;8.580;2023-01-10T19:01:19;11.40;88.50
11246;DHT22;59870;50.106;8.580;2023-01-10T19:03:49;11.10;89.80
11246;DHT22;59870;50.106;8.580;2023-01-10T19:06:20;11.30;90.10
11246;DHT22;59870;50.106;8.580;2023-01-10T19:08:50;11.10;90.10
11246;DHT22;59870;50.106;8.580;2023-01-10T19:11:18;11.30;90.20
11246;DHT22;59870;50.106;8.580;2023-01-10T19:13:51;11.10;90.60
11246;DHT22;59870;50.106;8.580;2023-01-10T19:16:29;10.70;90.30
11246;DHT22;59870;50.106;8.580;2023-01-10T19:19:05;11.00;91.00
11246;DHT22;59870;50.106;8.580;2023-01-10T19:21:34;11.00;90.90
11246;DHT22;59870;50.106;8.580;2023-01-10T19:24:07;11.00;90.90
11246;DHT22;59870;50.106;8.580;2023-01-10T19:26:39;10.70;91.10
11246;DHT22;59870;50.106;8.580;2023-01-10T19:29:07;10.90;91.10
11246;DHT22;59870;50.106;8.580;2023-01-10T19:31:35;11.10;91.10
11246;DHT22;59870;50.106;8.580;2023-01-10T19:34:03;11.10;91.10
11246;DHT22;59870;50.106;8.580;2023-01-10T19:36:31;10.90;91.30
11246;DHT22;59870;50.106;8.580;2023-01-10T19:39:02;11.10;91.60
11246;DHT22;59870;50.106;8.580;2023-01-10T19:41:32;11.20;91.60
11246;DHT22;59870;50.106;8.580;2023-01-10T19:44:04;11.10;91.80
11246;DHT22;59870;50.106;8.580;2023-01-10T19:46:33;11.10;91.90
11246;DHT22;59870;50.106;8.580;2023-01-10T19:49:03;11.00;92.10
11246;DHT22;59870;50.106;8.580;2023-01-10T19:51:36;11.00;92.50
11246;DHT22;59870;50.106;8.580;2023-01-10T19:54:05;10.80;92.50
11246;DHT22;59870;50.106;8.580;2023-01-10T19:56:34;10.80;92.40
11246;DHT22;59870;50.106;8.580;2023-01-10T19:59:02;10.80;92.30
11246;DHT22;59870;50.106;8.580;2023-01-10T20:01:30;10.80;92.30
11246;DHT22;59870;50.106;8.580;2023-01-10T20:04:04;10.50;92.20
11246;DHT22;59870;50.106;8.580;2023-01-10T20:06:36;10.80;92.60
11246;DHT22;59870;50.106;8.580;2023-01-10T20:09:05;10.80;92.70
11246;DHT22;59870;50.106;8.580;2023-01-10T20:11:34;11.00;92.70
11246;DHT22;59870;50.106;8.580;2023-01-10T20:14:10;10.70;92.90
11246;DHT22;59870;50.106;8.580;2023-01-10T20:16:38;10.90;93.20
11246;DHT22;59870;50.106;8.580;2023-01-10T20:19:09;10.60;92.60
11246;DHT22;59870;50.106;8.580;2023-01-10T20:21:50;10.90;93.10
11246;DHT22;59870;50.106;8.580;2023-01-10T20:24:33;10.70;92.80
11246;DHT22;59870;50.106;8.580;2023-01-10T20:28:39;10.70;93.20
11246;DHT22;59870;50.106;8.580;2023-01-10T20:31:48;10.60;93.10
11246;DHT22;59870;50.106;8.580;2023-01-10T20:34:29;10.30;93.10
11246;DHT22;59870;50.106;8.580;2023-01-10T20:37:36;10.60;93.20
11246;DHT22;59870;50.106;8.580;2023-01-10T20:40:15;10.50;92.80
11246;DHT22;59870;50.106;8.580;2023-01-10T20:42:54;10.50;93.00
11246;DHT22;59870;50.106;8.580;2023-01-10T20:45:52;10.50;93.50
11246;DHT22;59870;50.106;8.580;2023-01-10T20:48:23;10.50;93.20
11246;DHT22;59870;50.106;8.580;2023-01-10T20:50:57;10.40;93.50
11246;DHT22;59870;50.106;8.580;2023-01-10T20:53:25;10.40;92.90
11246;DHT22;59870;50.106;8.580;2023-01-10T20:56:22;10.10;93.00
11246;DHT22;59870;50.106;8.580;2023-01-10T20:59:05;10.10;93.30
11246;DHT22;59870;50.106;8.580;2023-01-10T21:02:36;10.30;93.30
11246;DHT22;59870;50.106;8.580;2023-01-10T21:05:10;10.40;93.00
11246;DHT22;59870;50.106;8.580;2023-01-10T21:08:02;10.40;92.60
11246;DHT22;59870;50.106;8.580;2023-01-10T21:10:57;10.40;93.00
11246;DHT22;59870;50.106;8.580;2023-01-10T21:13:29;10.60;92.90
11246;DHT22;59870;50.106;8.580;2023-01-10T21:16:05;10.10;93.30
11246;DHT22;59870;50.106;8.580;2023-01-10T21:19:04;10.30;93.30
11246;DHT22;59870;50.106;8.580;2023-01-10T21:21:46;10.30;93.30
11246;DHT22;59870;50.106;8.580;2023-01-10T21:24:26;10.20;93.00
11246;DHT22;59870;50.106;8.580;2023-01-10T21:27:14;10.60;93.40
11246;DHT22;59870;50.106;8.580;2023-01-10T21:29:43;10.30;93.20
11246;DHT22;59870;50.106;8.580;2023-01-10T21:32:40;10.30;93.00
11246;DHT22;59870;50.106;8.580;2023-01-10T21:35:19;10.40;93.40
11246;DHT22;59870;50.106;8.580;2023-01-10T21:37:47;10.50;93.20
11246;DHT22;59870;50.106;8.580;2023-01-10T21:40:15;10.10;93.10
11246;DHT22;59870;50.106;8.580;2023-01-10T21:42:42;10.50;93.30
11246;DHT22;59870;50.106;8.580;2023-01-10T21:45:15;10.30;93.40
11246;DHT22;59870;50.106;8.580;2023-01-10T21:47:50;10.30;93.30
11246;DHT22;59870;50.106;8.580;2023-01-10T21:50:24;10.30;93.70
11246;DHT22;59870;50.106;8.580;2023-01-10T21:52:59;10.30;93.60
11246;DHT22;59870;50.106;8.580;2023-01-10T21:55:45;10.30;93.60
11246;DHT22;59870;50.106;8.580;2023-01-10T21:58:25;10.30;93.70
11246;DHT22;59870;50.106;8.580;2023-01-10T22:00:57;10.50;93.80
11246;DHT22;59870;50.106;8.580;2023-01-10T22:03:25;10.30;93.70
11246;DHT22;59870;50.106;8.580;2023-01-10T22:05:53;10.30;93.50
11246;DHT22;59870;50.106;8.580;2023-01-10T22:08:21;10.30;93.30
11246;DHT22;59870;50.106;8.580;2023-01-10T22:10:51;10.30;93.30
11246;DHT22;59870;50.106;8.580;2023-01-10T22:13:19;10.40;93.60
11246;DHT22;59870;50.106;8.580;2023-01-10T22:15:58;10.20;93.20
11246;DHT22;59870;50.106;8.580;2023-01-10T22:18:27;10.50;93.40
11246;DHT22;59870;50.106;8.580;2023-01-10T22:20:57;10.30;93.50
11246;DHT22;59870;50.106;8.580;2023-01-10T22:23:27;10.30;93.70
11246;DHT22;59870;50.106;8.580;2023-01-10T22:26:08;10.50;93.90
11246;DHT22;59870;50.106;8.580;2023-01-10T22:28:36;10.20;93.90
11246;DHT22;59870;50.106;8.580;2023-01-10T22:31:04;10.50;93.70
11246;DHT22;59870;50.106;8.580;2023-01-10T22:33:34;10.30;94.00
11246;DHT22;59870;50.106;8.580;2023-01-10T22:36:04;10.50;94.10
11246;DHT22;59870;50.106;8.580;2023-01-10T22:38:32;10.30;94.00
11246;DHT22;59870;50.106;8.580;2023-01-10T22:41:08;10.30;94.10
11246;DHT22;59870;50.106;8.580;2023-01-10T22:43:36;10.50;94.10
11246;DHT22;59870;50.106;8.580;2023-01-10T22:46:05;10.60;94.20
11246;DHT22;59870;50.106;8.580;2023-01-10T22:48:38;10.50;94.30
11246;DHT22;59870;50.106;8.580;2023-01-10T22:51:07;10.40;94.10
11246;DHT22;59870;50.106;8.580;2023-01-10T22:53:35;10.60;94.20
11246;DHT22;59870;50.106;8.580;2023-01-10T22:56:05;10.50;94.40
11246;DHT22;59870;50.106;8.580;2023-01-10T22:58:36;10.30;94.50
11246;DHT22;59870;50.106;8.580;2023-01-10T23:01:05;10.30;94.60
11246;DHT22;59870;50.106;8.580;2023-01-10T23:03:33;10.20;94.70
11246;DHT22;59870;50.106;8.580;2023-01-10T23:06:03;10.30;94.40
11246;DHT22;59870;50.106;8.580;2023-01-10T23:08:31;10.20;94.60
11246;DHT22;59870;50.106;8.580;2023-01-10T23:10:59;10.50;94.80
11246;DHT22;59870;50.106;8.580;2023-01-10T23:13:29;10.50;94.60
11246;DHT22;59870;50.106;8.580;2023-01-10T23:18:29;10.50;94.60
11246;DHT22;59870;50.106;8.580;2023-01-10T23:20:57;10.30;94.50
11246;DHT22;59870;50.106;8.580;2023-01-10T23:23:26;10.30;94.50
11246;DHT22;59870;50.106;8.580;2023-01-10T23:26:02;10.60;94.40
11246;DHT22;59870;50.106;8.580;2023-01-10T23:28:34;10.00;94.40
11246;DHT22;59870;50.106;8.580;2023-01-10T23:31:03;10.50;94.50
11246;DHT22;59870;50.106;8.580;2023-01-10T23:33:33;10.00;94.30
11246;DHT22;59870;50.106;8.580;2023-01-10T23:36:02;10.60;94.60
11246;DHT22;59870;50.106;8.580;2023-01-10T23:38:31;10.30;94.40
11246;DHT22;59870;50.106;8.580;2023-01-10T23:40:59;10.60;94.40
11246;DHT22;59870;50.106;8.580;2023-01-10T23:43:26;10.40;94.30
11246;DHT22;59870;50.106;8.580;2023-01-10T23:45:54;10.40;94.50
11246;DHT22;59870;50.106;8.580;2023-01-10T23:48:21;10.40;94.50
11246;DHT22;59870;50.106;8.580;2023-01-10T23:50:50;10.40;94.40
11246;DHT22;59870;50.106;8.580;2023-01-10T23:53:18;10.40;94.70
11246;DHT22;59870;50.106;8.580;2023-01-10T23:55:46;10.40;94.40
11246;DHT22;59870;50.106;8.580;2023-01-10T23:58:13;10.70;94.70
